createdAt,value
2022-11-16T00:04:08.090Z,19.07
2022-11-16T00:09:26.941Z,18.95
2022-11-16T00:14:34.309Z,19.00
2022-11-16T00:19:37.837Z,18.88
2022-11-16T00:24:41.313Z,19.07
2022-11-16T00:29:46.452Z,18.78
2022-11-16T00:34:50.417Z,18.69
2022-11-16T00:39:54.337Z,18.68
2022-11-16T00:44:59.297Z,18.04
2022-11-16T00:50:02.902Z,18.59
2022-11-16T00:55:07.616Z,18.64
2022-11-16T01:00:14.770Z,18.70
2022-11-16T01:05:18.435Z,18.71
2022-11-16T01:10:23.589Z,18.87
2022-11-16T01:15:29.378Z,18.80
2022-11-16T01:20:32.930Z,18.78
2022-11-16T01:25:36.509Z,18.76
2022-11-16T01:30:41.526Z,18.45
2022-11-16T01:35:46.657Z,18.71
2022-11-16T01:40:51.781Z,18.79
2022-11-16T01:45:58.105Z,18.91
2022-11-16T01:51:02.550Z,18.81
2022-11-16T01:56:08.348Z,18.62
2022-11-16T02:01:33.969Z,18.75
2022-11-16T02:06:55.310Z,18.76
2022-11-16T02:12:10.947Z,18.52
2022-11-16T02:17:22.521Z,18.54
2022-11-16T02:22:37.033Z,18.46
2022-11-16T02:28:06.436Z,18.38
2022-11-16T02:33:13.329Z,18.57
2022-11-16T02:38:20.428Z,18.49
2022-11-16T02:43:30.817Z,18.32
2022-11-16T02:48:38.280Z,18.42
2022-11-16T02:53:51.649Z,18.05
2022-11-16T02:58:56.625Z,18.48
2022-11-16T03:04:04.611Z,18.50
2022-11-16T03:09:12.016Z,18.63
2022-11-16T03:14:18.752Z,18.37
2022-11-16T03:19:29.982Z,18.47
2022-11-16T03:24:35.660Z,18.19
2022-11-16T03:29:42.629Z,18.08
2022-11-16T03:34:53.243Z,17.96
2022-11-16T03:39:57.778Z,18.07
2022-11-16T03:45:01.554Z,17.91
2022-11-16T03:50:07.656Z,17.92
2022-11-16T03:55:11.353Z,17.62
2022-11-16T04:00:15.619Z,17.72
2022-11-16T04:05:39.266Z,17.72
2022-11-16T04:11:01.376Z,17.69
2022-11-16T04:16:26.822Z,17.65
2022-11-16T04:21:47.937Z,17.63
2022-11-16T04:27:12.824Z,17.71
2022-11-16T04:32:34.896Z,17.67
2022-11-16T04:37:52.539Z,17.50
2022-11-16T04:43:05.729Z,17.27
2022-11-16T04:48:13.015Z,17.30
2022-11-16T04:53:18.290Z,17.44
2022-11-16T04:58:26.945Z,17.36
2022-11-16T05:03:30.858Z,17.29
2022-11-16T05:08:36.092Z,17.34
2022-11-16T05:13:41.179Z,17.06
2022-11-16T05:18:45.000Z,17.14
2022-11-16T05:24:07.455Z,16.81
2022-11-16T05:29:11.362Z,16.88
2022-11-16T05:34:15.018Z,16.52
2022-11-16T05:39:20.347Z,16.57
2022-11-16T05:44:26.578Z,16.91
2022-11-16T05:49:30.214Z,16.65
2022-11-16T05:54:37.048Z,16.60
2022-11-16T05:59:40.577Z,16.51
2022-11-16T06:04:44.103Z,16.21
2022-11-16T06:09:49.115Z,16.31
2022-11-16T06:14:56.787Z,16.22
2022-11-16T06:20:00.320Z,15.93
2022-11-16T06:25:07.709Z,15.82
2022-11-16T06:30:15.837Z,15.93
2022-11-16T06:35:19.350Z,15.74
2022-11-16T06:40:24.375Z,15.70
2022-11-16T06:45:28.240Z,15.66
2022-11-16T06:50:34.254Z,15.60
2022-11-16T06:55:39.119Z,15.34
2022-11-16T07:00:42.657Z,15.32
2022-11-16T07:05:47.618Z,15.60
2022-11-16T07:10:56.450Z,15.54
2022-11-16T07:21:39.466Z,15.35
2022-11-16T07:26:50.035Z,15.02
2022-11-16T07:31:57.067Z,15.33
2022-11-16T07:37:32.652Z,15.35
2022-11-16T07:42:37.652Z,14.85
2022-11-16T07:47:55.288Z,14.70
2022-11-16T07:53:18.579Z,14.84
2022-11-16T07:58:24.053Z,14.66
2022-11-16T08:03:28.293Z,14.53
2022-11-16T08:08:32.416Z,14.77
2022-11-16T08:13:39.349Z,14.66
2022-11-16T08:18:43.460Z,15.01
2022-11-16T08:23:47.100Z,14.84
2022-11-16T08:28:53.789Z,14.69
2022-11-16T08:34:01.736Z,15.04
2022-11-16T08:39:06.165Z,14.85
2022-11-16T08:44:12.224Z,14.85
2022-11-16T08:49:20.325Z,14.93
2022-11-16T08:54:24.083Z,15.06
2022-11-16T08:59:29.289Z,14.75
2022-11-16T09:04:37.618Z,14.98
2022-11-16T09:09:41.065Z,15.09
2022-11-16T09:14:45.792Z,15.02
2022-11-16T09:19:49.129Z,14.84
2022-11-16T09:24:52.556Z,14.80
2022-11-16T09:29:57.334Z,14.79
2022-11-16T09:35:00.760Z,14.99
2022-11-16T09:40:04.516Z,15.13
2022-11-16T09:45:14.702Z,15.00
2022-11-16T09:50:27.354Z,14.68
2022-11-16T09:55:34.895Z,14.77
2022-11-16T10:00:42.594Z,14.68
2022-11-16T10:05:49.619Z,14.59
2022-11-16T10:11:00.311Z,14.62
2022-11-16T10:16:07.849Z,14.77
2022-11-16T10:21:32.976Z,14.37
2022-11-16T10:26:40.346Z,15.00
2022-11-16T10:32:03.133Z,14.94
2022-11-16T10:37:08.490Z,15.05
2022-11-16T10:42:13.363Z,15.15
2022-11-16T10:47:22.134Z,15.36
2022-11-16T10:52:26.040Z,14.90
2022-11-16T10:57:55.555Z,14.97
2022-11-16T11:03:00.412Z,15.07
2022-11-16T11:08:05.483Z,15.17
2022-11-16T11:13:23.852Z,14.93
2022-11-16T11:18:30.256Z,14.92
2022-11-16T11:23:42.436Z,15.20
2022-11-16T11:28:49.061Z,15.19
2022-11-16T11:33:55.934Z,15.13
2022-11-16T11:39:01.014Z,14.98
2022-11-16T11:44:05.888Z,15.09
2022-11-16T11:49:16.236Z,15.11
2022-11-16T11:54:23.401Z,14.81
2022-11-16T11:59:27.699Z,14.97
2022-11-16T12:05:04.498Z,15.09
2022-11-16T12:10:14.567Z,15.12
2022-11-16T12:15:37.126Z,14.75
2022-11-16T12:20:47.074Z,14.88
2022-11-16T12:25:57.222Z,15.27
2022-11-16T12:31:12.190Z,15.25
2022-11-16T12:36:25.475Z,15.27
2022-11-16T12:42:02.028Z,15.16
2022-11-16T12:47:10.925Z,15.25
2022-11-16T12:52:27.603Z,15.30
2022-11-16T12:57:37.538Z,15.58
2022-11-16T13:02:51.289Z,15.36
2022-11-16T13:08:00.066Z,15.34
2022-11-16T13:13:34.835Z,14.92
2022-11-16T13:18:31.624Z,15.16
2022-11-16T13:23:46.043Z,15.47
2022-11-16T13:28:55.269Z,15.36
2022-11-16T13:34:01.161Z,15.20
2022-11-16T13:39:06.922Z,15.04
2022-11-16T13:44:30.814Z,15.30
2022-11-16T13:49:36.584Z,15.11
2022-11-16T13:54:45.803Z,15.28
2022-11-16T13:59:51.990Z,15.28
2022-11-16T14:04:57.769Z,15.20
2022-11-16T14:10:05.554Z,14.58
2022-11-16T14:15:15.645Z,15.01
2022-11-16T14:20:31.340Z,15.12
2022-11-16T14:25:40.690Z,15.22
2022-11-16T14:30:56.312Z,15.19
2022-11-16T14:36:00.358Z,15.13
2022-11-16T14:41:06.770Z,15.00
2022-11-16T14:46:17.145Z,15.01
2022-11-16T14:51:23.489Z,15.18
2022-11-16T14:56:28.426Z,15.14
2022-11-16T15:01:34.528Z,15.13
2022-11-16T15:06:42.067Z,15.28
2022-11-16T15:12:07.235Z,15.07
2022-11-16T15:17:17.257Z,14.93
2022-11-16T15:22:20.810Z,14.79
2022-11-16T15:27:36.367Z,14.76
2022-11-16T15:32:42.646Z,14.94
2022-11-16T15:37:46.256Z,14.94
2022-11-16T15:42:52.137Z,14.97
2022-11-16T15:47:55.975Z,14.72
2022-11-16T15:52:59.841Z,14.96
2022-11-16T15:58:16.373Z,15.03
2022-11-16T16:03:23.662Z,15.28
2022-11-16T16:08:30.650Z,15.23
2022-11-16T16:13:37.546Z,14.94
2022-11-16T16:18:43.285Z,15.10
2022-11-16T16:23:47.385Z,14.94
2022-11-16T16:28:52.613Z,15.15
2022-11-16T16:33:56.715Z,15.12
2022-11-16T16:39:00.150Z,14.66
2022-11-16T16:44:06.259Z,14.83
2022-11-16T16:49:09.791Z,14.68
2022-11-16T16:54:14.489Z,14.79
2022-11-16T16:59:19.534Z,14.82
2022-11-16T17:04:22.996Z,14.92
2022-11-16T17:09:26.754Z,14.79
2022-11-16T17:14:31.751Z,14.89
2022-11-16T17:19:35.307Z,14.30
2022-11-16T17:24:38.914Z,14.98
2022-11-16T17:29:43.977Z,14.89
2022-11-16T17:34:47.495Z,14.81
2022-11-16T17:39:50.999Z,14.92
2022-11-16T17:44:55.909Z,15.00
2022-11-16T17:49:59.549Z,14.84
2022-11-16T17:55:03.084Z,14.75
2022-11-16T18:00:09.628Z,14.86
2022-11-16T18:05:13.731Z,14.86
2022-11-16T18:10:19.400Z,14.77
2022-11-16T18:15:29.247Z,14.75
2022-11-16T18:20:36.616Z,14.80
2022-11-16T18:25:40.141Z,14.73
2022-11-16T18:30:45.000Z,14.99
2022-11-16T18:35:48.547Z,14.92
2022-11-16T18:41:04.119Z,14.65
2022-11-16T18:46:09.553Z,15.04
2022-11-16T18:51:13.673Z,14.77
2022-11-16T18:56:17.666Z,14.79
2022-11-16T19:01:23.775Z,14.90
2022-11-16T19:06:27.369Z,14.55
2022-11-16T19:11:31.012Z,14.72
2022-11-16T19:16:36.067Z,14.49
2022-11-16T19:21:39.900Z,14.44
2022-11-16T19:26:43.460Z,14.45
2022-11-16T19:31:48.224Z,14.27
2022-11-16T19:36:51.607Z,14.24
2022-11-16T19:41:54.965Z,14.36
2022-11-16T19:46:59.689Z,14.69
2022-11-16T19:52:03.141Z,14.60
2022-11-16T19:57:06.589Z,14.49
2022-11-16T20:02:11.374Z,14.39
2022-11-16T20:07:17.942Z,14.70
2022-11-16T20:12:21.446Z,14.67
2022-11-16T20:17:26.252Z,14.52
2022-11-16T20:22:30.014Z,14.67
2022-11-16T20:27:33.457Z,14.52
2022-11-16T20:32:38.211Z,14.42
2022-11-16T20:37:42.631Z,14.48
2022-11-16T20:42:46.124Z,14.51
2022-11-16T20:47:50.983Z,14.52
2022-11-16T20:52:54.452Z,14.23
2022-11-16T20:57:58.158Z,14.55
2022-11-16T21:03:02.957Z,14.26
2022-11-16T21:08:06.781Z,14.09
2022-11-16T21:13:31.166Z,14.13
2022-11-16T21:18:36.081Z,14.18
2022-11-16T21:23:40.415Z,14.23
2022-11-16T21:28:44.688Z,13.77
2022-11-16T21:33:49.677Z,14.03
2022-11-16T21:38:53.629Z,14.26
2022-11-16T21:43:57.275Z,13.89
2022-11-16T21:49:02.153Z,13.90
2022-11-16T21:54:05.909Z,14.03
2022-11-16T21:59:09.261Z,13.74
2022-11-16T22:04:31.351Z,13.98
2022-11-16T22:09:34.749Z,13.99
2022-11-16T22:14:38.099Z,13.97
2022-11-16T22:19:42.926Z,13.98
2022-11-16T22:24:46.464Z,13.91
2022-11-16T22:29:49.892Z,13.61
2022-11-16T22:34:54.632Z,13.96
2022-11-16T22:39:58.128Z,13.36
2022-11-16T22:45:01.554Z,13.92
2022-11-16T22:50:07.272Z,13.54
2022-11-16T22:55:10.789Z,13.74
2022-11-16T23:00:15.184Z,13.49
2022-11-16T23:05:19.937Z,13.51
2022-11-16T23:10:23.390Z,13.54
2022-11-16T23:15:44.319Z,13.54
2022-11-16T23:21:06.449Z,13.50
2022-11-16T23:26:31.039Z,13.25
2022-11-16T23:31:34.474Z,13.59
2022-11-16T23:36:39.228Z,13.17
2022-11-16T23:42:00.143Z,13.22
2022-11-16T23:47:03.592Z,13.44
2022-11-16T23:52:08.465Z,13.40
2022-11-16T23:57:13.052Z,13.00
